createdAt,value
2022-10-06T00:00:53.332Z,99359.28
2022-10-06T00:03:41.539Z,99379.19
2022-10-06T00:06:28.432Z,99376.50
2022-10-06T00:09:15.484Z,99377.97
2022-10-06T00:12:05.699Z,99367.47
2022-10-06T00:14:54.702Z,99378.34
2022-10-06T00:17:42.025Z,99373.84
2022-10-06T00:20:29.547Z,99367.63
2022-10-06T00:23:17.935Z,99372.78
2022-10-06T00:26:04.885Z,99379.91
2022-10-06T00:28:51.708Z,99384.28
2022-10-06T00:31:38.499Z,99395.13
2022-10-06T00:34:25.316Z,99393.50
2022-10-06T00:37:12.544Z,99392.94
2022-10-06T00:39:59.343Z,99396.31
2022-10-06T00:42:55.586Z,99398.16
2022-10-06T00:45:48.430Z,99398.78
2022-10-06T00:48:35.983Z,99407.28
2022-10-06T00:51:29.088Z,99391.88
2022-10-06T00:54:16.694Z,99400.31
2022-10-06T00:57:05.152Z,99406.28
2022-10-06T00:59:52.676Z,99400.13
2022-10-06T01:02:45.099Z,99417.94
2022-10-06T01:05:41.372Z,99409.91
2022-10-06T01:08:29.772Z,99410.88
2022-10-06T01:11:16.824Z,99411.00
2022-10-06T01:14:03.675Z,99412.47
2022-10-06T01:16:59.207Z,99409.34
2022-10-06T01:20:00.144Z,99414.69
2022-10-06T01:23:01.340Z,99404.47
2022-10-06T01:25:49.175Z,99403.41
2022-10-06T01:28:37.805Z,99407.00
2022-10-06T01:31:25.197Z,99418.28
2022-10-06T01:34:15.084Z,99418.28
2022-10-06T01:37:01.944Z,99419.16
2022-10-06T01:39:48.875Z,99421.97
2022-10-06T01:42:36.423Z,99420.38
2022-10-06T01:45:23.366Z,99416.13
2022-10-06T01:48:10.158Z,99420.03
2022-10-06T01:50:58.003Z,99416.13
2022-10-06T01:53:45.061Z,99424.84
2022-10-06T01:56:34.220Z,99427.41
2022-10-06T01:59:21.236Z,99434.91
2022-10-06T02:02:08.153Z,99437.84
2022-10-06T02:04:55.217Z,99440.66
2022-10-06T02:07:42.668Z,99446.09
2022-10-06T02:10:34.872Z,99444.03
2022-10-06T02:13:28.399Z,99446.44
2022-10-06T02:16:17.810Z,99443.53
2022-10-06T02:19:05.093Z,99442.69
2022-10-06T02:21:51.961Z,99439.53
2022-10-06T02:24:38.741Z,99434.47
2022-10-06T02:27:25.732Z,99446.63
2022-10-06T02:30:14.408Z,99446.22
2022-10-06T02:33:02.202Z,99447.78
2022-10-06T02:35:28.728Z,99451.69
2022-10-06T02:37:57.660Z,99453.38
2022-10-06T02:40:24.397Z,99446.34
2022-10-06T02:42:50.860Z,99457.75
2022-10-06T02:45:20.124Z,99459.47
2022-10-06T02:47:46.597Z,99454.34
2022-10-06T02:50:13.736Z,99453.50
2022-10-06T02:52:42.733Z,99456.53
2022-10-06T02:55:10.576Z,99461.13
2022-10-06T02:57:37.224Z,99463.31
2022-10-06T03:00:07.779Z,99469.50
2022-10-06T03:02:34.714Z,99463.56
2022-10-06T03:05:01.573Z,99467.22
2022-10-06T03:07:28.285Z,99475.09
2022-10-06T03:09:55.308Z,99478.13
2022-10-06T03:12:23.981Z,99474.38
2022-10-06T03:14:51.444Z,99479.59
2022-10-06T03:17:18.645Z,99484.53
2022-10-06T03:19:50.426Z,99488.19
2022-10-06T03:22:16.992Z,99476.53
2022-10-06T03:24:52.696Z,99496.31
2022-10-06T03:27:23.086Z,99494.88
2022-10-06T03:29:52.481Z,99519.97
2022-10-06T03:32:22.793Z,99513.66
2022-10-06T03:34:49.841Z,99527.72
2022-10-06T03:37:19.016Z,99534.13
2022-10-06T03:39:45.578Z,99539.69
2022-10-06T03:42:12.154Z,99539.56
2022-10-06T03:44:38.709Z,99545.09
2022-10-06T03:47:07.907Z,99533.47
2022-10-06T03:49:39.674Z,99550.44
2022-10-06T03:52:06.155Z,99549.00
2022-10-06T03:54:36.827Z,99546.50
2022-10-06T03:57:05.676Z,99547.59
2022-10-06T03:59:34.276Z,99556.13
2022-10-06T04:02:05.416Z,99551.97
2022-10-06T04:04:35.843Z,99560.34
2022-10-06T04:07:07.067Z,99556.59
2022-10-06T04:09:33.646Z,99563.63
2022-10-06T04:12:01.082Z,99563.47
2022-10-06T04:14:31.680Z,99559.84
2022-10-06T04:16:58.223Z,99573.41
2022-10-06T04:19:30.104Z,99561.25
2022-10-06T04:21:57.893Z,99564.91
2022-10-06T04:24:27.759Z,99572.91
2022-10-06T04:27:14.237Z,99572.78
2022-10-06T04:29:48.596Z,99580.03
2022-10-06T04:32:17.919Z,99576.31
2022-10-06T04:34:44.494Z,99574.53
2022-10-06T04:37:13.151Z,99570.16
2022-10-06T04:39:41.040Z,99589.13
2022-10-06T04:42:08.587Z,99586.56
2022-10-06T04:44:38.345Z,99592.25
2022-10-06T04:47:08.255Z,99581.50
2022-10-06T04:49:34.798Z,99590.78
2022-10-06T04:52:01.960Z,99599.13
2022-10-06T04:54:34.161Z,99595.38
2022-10-06T04:57:03.095Z,99608.00
2022-10-06T04:59:49.498Z,99599.03
2022-10-06T05:02:17.096Z,99620.03
2022-10-06T05:04:48.132Z,99614.81
2022-10-06T05:07:16.089Z,99615.06
2022-10-06T05:09:42.623Z,99614.69
2022-10-06T05:12:10.187Z,99613.13
2022-10-06T05:14:36.964Z,99629.59
2022-10-06T05:17:06.260Z,99635.94
2022-10-06T05:19:34.329Z,99632.53
2022-10-06T05:22:01.545Z,99631.31
2022-10-06T05:24:30.789Z,99649.31
2022-10-06T05:27:02.111Z,99642.84
2022-10-06T05:29:29.650Z,99646.38
2022-10-06T05:31:58.849Z,99655.97
2022-10-06T05:34:27.210Z,99669.94
2022-10-06T05:36:53.770Z,99663.41
2022-10-06T05:39:20.631Z,99669.09
2022-10-06T05:41:51.566Z,99675.06
2022-10-06T05:44:18.308Z,99669.22
2022-10-06T05:46:45.457Z,99681.47
2022-10-06T05:49:13.277Z,99681.38
2022-10-06T05:51:45.009Z,99682.34
2022-10-06T05:54:16.825Z,99689.84
2022-10-06T05:56:43.897Z,99694.72
2022-10-06T05:59:10.531Z,99698.59
2022-10-06T06:01:44.495Z,99705.78
2022-10-06T06:04:21.570Z,99707.13
2022-10-06T06:06:51.923Z,99713.31
2022-10-06T06:09:23.138Z,99712.47
2022-10-06T06:11:52.975Z,99708.94
2022-10-06T06:14:56.182Z,99716.22
2022-10-06T06:17:25.952Z,99722.53
2022-10-06T06:19:54.907Z,99728.13
2022-10-06T06:22:21.527Z,99732.00
2022-10-06T06:24:49.692Z,99728.25
2022-10-06T06:27:17.208Z,99738.69
2022-10-06T06:29:44.303Z,99742.84
2022-10-06T06:32:10.896Z,99751.94
2022-10-06T06:34:40.906Z,99752.56
2022-10-06T06:37:15.032Z,99757.53
2022-10-06T06:39:42.557Z,99765.44
2022-10-06T06:42:09.087Z,99774.19
2022-10-06T06:44:55.806Z,99774.69
2022-10-06T06:47:28.249Z,99776.41
2022-10-06T06:49:58.869Z,99786.00
2022-10-06T06:52:26.122Z,99788.06
2022-10-06T06:54:52.873Z,99790.00
2022-10-06T06:57:21.846Z,99799.81
2022-10-06T06:59:50.937Z,99807.00
2022-10-06T07:02:18.467Z,99811.78
2022-10-06T07:04:46.984Z,99793.00
2022-10-06T07:07:16.156Z,99814.75
2022-10-06T07:09:42.622Z,99818.91
2022-10-06T07:12:14.267Z,99820.34
2022-10-06T07:15:10.802Z,99829.09
2022-10-06T07:17:59.163Z,99820.41
2022-10-06T07:20:44.411Z,99820.75
2022-10-06T07:23:37.145Z,99832.94
2022-10-06T07:26:07.223Z,99847.28
2022-10-06T07:28:33.723Z,99857.50
2022-10-06T07:31:01.115Z,99850.13
2022-10-06T07:33:32.278Z,99855.63
2022-10-06T07:36:00.457Z,99857.53
2022-10-06T07:38:30.609Z,99862.16
2022-10-06T07:43:47.912Z,99879.25
2022-10-06T07:46:15.844Z,99882.53
2022-10-06T07:48:48.892Z,99876.38
2022-10-06T07:51:18.383Z,99872.75
2022-10-06T07:53:50.797Z,99876.03
2022-10-06T07:56:40.644Z,99892.56
2022-10-06T07:59:07.200Z,99897.34
2022-10-06T08:01:33.707Z,99908.91
2022-10-06T08:04:00.220Z,99918.31
2022-10-06T08:06:26.681Z,99919.19
2022-10-06T08:08:56.479Z,99933.22
2022-10-06T08:11:23.153Z,99942.00
2022-10-06T08:13:50.406Z,99945.50
2022-10-06T08:16:19.592Z,99954.41
2022-10-06T08:18:53.905Z,99960.13
2022-10-06T08:21:29.124Z,99956.19
2022-10-06T08:23:58.900Z,99965.09
2022-10-06T08:26:27.190Z,99965.22
2022-10-06T08:28:57.429Z,99971.78
2022-10-06T08:31:24.394Z,99971.41
2022-10-06T08:33:57.068Z,99982.59
2022-10-06T08:36:31.479Z,99993.97
2022-10-06T08:38:59.500Z,99995.53
2022-10-06T08:41:27.476Z,99995.28
2022-10-06T08:43:57.175Z,100005.63
2022-10-06T08:46:28.445Z,100007.84
2022-10-06T08:48:55.936Z,99992.97
2022-10-06T08:51:47.177Z,100002.56
2022-10-06T08:54:35.850Z,100014.09
2022-10-06T08:57:29.863Z,100020.50
2022-10-06T08:59:58.715Z,100021.72
2022-10-06T09:02:29.133Z,100025.22
2022-10-06T09:05:04.339Z,100028.56
2022-10-06T09:08:01.245Z,100025.72
2022-10-06T09:10:36.951Z,100055.16
2022-10-06T09:13:19.675Z,100424.44
2022-10-06T09:16:04.429Z,99940.50
2022-10-06T09:18:56.465Z,100362.63
2022-10-06T09:21:40.004Z,100644.16
2022-10-06T09:24:27.206Z,100590.41
2022-10-06T09:26:57.396Z,100508.09
2022-10-06T09:29:25.698Z,100534.16
2022-10-06T09:31:52.772Z,100171.50
2022-10-06T09:34:25.367Z,99091.75
2022-10-06T09:37:04.000Z,99059.28
2022-10-06T09:39:36.337Z,99157.69
2022-10-06T09:42:10.577Z,99370.22
2022-10-06T09:44:44.991Z,99493.44
2022-10-06T09:47:33.013Z,99447.75
2022-10-06T09:50:12.026Z,99526.63
2022-10-06T09:52:40.269Z,99666.16
2022-10-06T09:55:18.429Z,99486.47
2022-10-06T09:57:49.926Z,99560.28
2022-10-06T10:00:26.860Z,99579.72
2022-10-06T10:03:12.140Z,99508.69
2022-10-06T10:05:47.675Z,99554.13
2022-10-06T10:08:14.114Z,99743.47
2022-10-06T10:10:40.930Z,98931.75
2022-10-06T10:13:25.674Z,99676.22
2022-10-06T10:16:03.051Z,100685.47
2022-10-06T10:18:31.725Z,100771.31
2022-10-06T10:21:08.418Z,100775.75
2022-10-06T10:23:43.116Z,100616.00
2022-10-06T10:26:35.803Z,100262.31
2022-10-06T10:29:22.593Z,100249.59
2022-10-06T10:31:59.976Z,99035.31
2022-10-06T10:34:32.369Z,99195.47
2022-10-06T10:37:04.162Z,99291.31
2022-10-06T10:39:35.783Z,99615.84
2022-10-06T10:42:11.908Z,99463.38
2022-10-06T10:44:47.872Z,98898.47
2022-10-06T10:47:21.567Z,98970.84
2022-10-06T10:50:07.995Z,100002.19
2022-10-06T10:52:42.319Z,100439.66
2022-10-06T10:55:36.077Z,100739.75
2022-10-06T10:58:18.904Z,100773.78
2022-10-06T11:00:50.198Z,100762.34
2022-10-06T11:03:16.871Z,100691.59
2022-10-06T11:05:56.023Z,100692.19
2022-10-06T11:08:30.899Z,100635.38
2022-10-06T11:11:00.393Z,100639.94
2022-10-06T11:13:40.741Z,100653.72
2022-10-06T11:16:26.029Z,100665.06
2022-10-06T11:18:52.479Z,100678.38
2022-10-06T11:21:24.786Z,100669.97
2022-10-06T11:24:02.555Z,100693.28
2022-10-06T11:27:07.814Z,100659.53
2022-10-06T11:29:52.967Z,100644.38
2022-10-06T11:32:25.434Z,100638.84
2022-10-06T11:34:55.458Z,100647.09
2022-10-06T11:37:39.080Z,100628.44
2022-10-06T11:40:24.306Z,100642.81
2022-10-06T11:43:00.848Z,100647.22
2022-10-06T11:45:41.406Z,100641.78
2022-10-06T11:48:32.873Z,100620.44
2022-10-06T11:51:25.150Z,100613.63
2022-10-06T11:53:52.697Z,100583.97
2022-10-06T11:56:19.307Z,100578.44
2022-10-06T11:58:51.948Z,100589.50
2022-10-06T12:01:30.608Z,100590.06
2022-10-06T12:04:09.310Z,100606.97
2022-10-06T12:06:44.419Z,100624.81
2022-10-06T12:09:32.059Z,100658.34
2022-10-06T12:12:24.220Z,100666.53
2022-10-06T12:18:44.473Z,100637.03
2022-10-06T12:21:23.886Z,100650.25
2022-10-06T12:24:21.980Z,100648.84
2022-10-06T12:26:57.558Z,100633.94
2022-10-06T12:29:39.318Z,100617.47
2022-10-06T12:32:30.139Z,100588.94
2022-10-06T12:35:15.406Z,100593.16
2022-10-06T12:37:54.282Z,100604.81
2022-10-06T12:40:57.602Z,100602.84
2022-10-06T12:43:24.057Z,100601.56
2022-10-06T12:46:18.548Z,100637.16
2022-10-06T12:49:01.812Z,100618.56
2022-10-06T12:51:35.592Z,100611.81
2022-10-06T12:54:07.158Z,100626.88
2022-10-06T12:56:36.917Z,100644.19
2022-10-06T12:59:34.741Z,100627.56
2022-10-06T13:02:16.398Z,100652.84
2022-10-06T13:04:49.050Z,100655.44
2022-10-06T13:07:18.246Z,100644.38
2022-10-06T13:09:47.010Z,100613.06
2022-10-06T13:12:27.707Z,100584.56
2022-10-06T13:15:15.668Z,100600.09
2022-10-06T13:18:03.355Z,100580.06
2022-10-06T13:20:55.168Z,100587.63
2022-10-06T13:23:24.331Z,100603.59
2022-10-06T13:26:27.509Z,100582.50
2022-10-06T13:28:55.710Z,100602.09
2022-10-06T13:31:27.198Z,100606.69
2022-10-06T13:34:03.659Z,100592.78
2022-10-06T13:36:33.663Z,100620.53
2022-10-06T13:39:03.594Z,100627.56
2022-10-06T13:41:34.077Z,100661.53
2022-10-06T13:44:02.722Z,100663.03
2022-10-06T13:46:42.132Z,100647.69
2022-10-06T13:49:28.545Z,100665.88
2022-10-06T13:52:00.213Z,100660.63
2022-10-06T13:54:35.600Z,100663.53
2022-10-06T13:57:02.085Z,100670.41
2022-10-06T13:59:38.531Z,100673.97
2022-10-06T14:02:25.498Z,100664.56
2022-10-06T14:05:19.245Z,100665.91
2022-10-06T14:07:47.145Z,100685.22
2022-10-06T14:10:40.012Z,100682.72
2022-10-06T14:13:17.861Z,100665.56
2022-10-06T14:15:53.649Z,100659.00
2022-10-06T14:18:33.990Z,100655.97
2022-10-06T14:21:16.860Z,100636.53
2022-10-06T14:23:43.257Z,100511.19
2022-10-06T14:26:15.334Z,100622.97
2022-10-06T14:28:48.425Z,100597.84
2022-10-06T14:31:15.196Z,100570.06
2022-10-06T14:33:41.976Z,100588.59
2022-10-06T14:36:16.167Z,100452.50
2022-10-06T14:38:42.704Z,100457.25
2022-10-06T14:41:09.320Z,100442.97
2022-10-06T14:43:41.670Z,100412.47
2022-10-06T14:46:11.597Z,100437.09
2022-10-06T14:48:38.177Z,100467.97
2022-10-06T14:51:07.515Z,100478.13
2022-10-06T14:53:34.510Z,100460.28
2022-10-06T14:56:03.298Z,100450.34
2022-10-06T14:58:29.956Z,100477.25
2022-10-06T15:01:04.036Z,100513.09
2022-10-06T15:03:30.646Z,100498.09
2022-10-06T15:06:20.901Z,100552.69
2022-10-06T15:08:51.835Z,100619.22
2022-10-06T15:11:20.173Z,100567.94
2022-10-06T15:13:47.782Z,100551.91
2022-10-06T15:16:17.807Z,100599.28
2022-10-06T15:18:44.497Z,100645.22
2022-10-06T15:21:11.476Z,100658.69
2022-10-06T15:23:39.205Z,100639.38
2022-10-06T15:26:25.297Z,100611.09
2022-10-06T15:29:01.671Z,100571.09
2022-10-06T15:31:35.759Z,100472.88
2022-10-06T15:34:04.741Z,100575.56
2022-10-06T15:36:34.231Z,100654.88
2022-10-06T15:39:12.165Z,100670.75
2022-10-06T15:41:40.717Z,100654.63
2022-10-06T15:44:08.479Z,100654.47
2022-10-06T15:46:47.220Z,100651.53
2022-10-06T15:49:18.132Z,100637.22
2022-10-06T15:51:49.232Z,100655.84
2022-10-06T15:54:21.738Z,100682.38
2022-10-06T15:56:55.564Z,100678.09
2022-10-06T15:59:24.458Z,100670.00
2022-10-06T16:01:55.642Z,100673.66
2022-10-06T16:04:34.580Z,100666.81
2022-10-06T16:07:04.216Z,100669.84
2022-10-06T16:09:43.028Z,100667.91
2022-10-06T16:12:18.041Z,100676.03
2022-10-06T16:14:45.192Z,100671.63
2022-10-06T16:17:14.979Z,100664.84
2022-10-06T16:19:43.948Z,100657.00
2022-10-06T16:22:13.947Z,100664.22
2022-10-06T16:24:42.811Z,100664.44
2022-10-06T16:27:14.192Z,100637.75
2022-10-06T16:29:43.056Z,100618.94
2022-10-06T16:32:11.969Z,100605.41
2022-10-06T16:34:38.402Z,100604.44
2022-10-06T16:37:04.890Z,100596.72
2022-10-06T16:39:31.390Z,100593.31
2022-10-06T16:41:57.871Z,100585.38
2022-10-06T16:44:26.479Z,100599.00
2022-10-06T16:46:53.020Z,100585.13
2022-10-06T16:49:21.693Z,100579.53
2022-10-06T16:51:48.197Z,100565.63
2022-10-06T16:54:16.938Z,100550.94
2022-10-06T16:56:46.581Z,100516.88
2022-10-06T16:59:21.467Z,100505.91
2022-10-06T17:01:49.006Z,100444.41
2022-10-06T17:04:36.556Z,100389.94
2022-10-06T17:07:23.324Z,100377.88
2022-10-06T17:10:21.500Z,100357.25
2022-10-06T17:13:08.484Z,100350.44
2022-10-06T17:16:03.696Z,100338.81
2022-10-06T17:18:52.705Z,100335.00
2022-10-06T17:21:46.312Z,100320.19
2022-10-06T17:24:33.919Z,100317.75
2022-10-06T17:27:21.127Z,100284.66
2022-10-06T17:30:08.707Z,100280.53
2022-10-06T17:33:00.173Z,100280.81
2022-10-06T17:35:46.984Z,100290.19
2022-10-06T17:38:36.378Z,100292.25
2022-10-06T17:41:29.526Z,100275.00
2022-10-06T17:44:22.729Z,100272.06
2022-10-06T17:47:12.246Z,100275.94
2022-10-06T17:50:00.419Z,100285.34
2022-10-06T17:52:49.661Z,100268.06
2022-10-06T17:55:36.708Z,100265.88
2022-10-06T17:58:23.848Z,100251.72
2022-10-06T18:01:17.609Z,100249.19
2022-10-06T18:04:06.285Z,100233.44
2022-10-06T18:06:54.052Z,100241.34
2022-10-06T18:10:03.204Z,100253.47
2022-10-06T18:12:50.799Z,100260.94
2022-10-06T18:15:37.655Z,100262.69
2022-10-06T18:18:25.219Z,100247.84
2022-10-06T18:21:12.793Z,100255.50
2022-10-06T18:23:59.568Z,100255.88
2022-10-06T18:26:53.599Z,100252.13
2022-10-06T18:29:40.394Z,100253.50
2022-10-06T18:34:10.803Z,100236.56
2022-10-06T18:38:45.207Z,100248.72
2022-10-06T18:41:32.080Z,100237.72
2022-10-06T18:44:38.859Z,100223.41
2022-10-06T18:47:44.293Z,100222.88
2022-10-06T18:50:32.128Z,100224.50
2022-10-06T18:53:21.729Z,100231.97
2022-10-06T18:56:10.727Z,100230.47
2022-10-06T18:58:59.276Z,100235.16
2022-10-06T19:01:47.945Z,100235.69
2022-10-06T19:04:35.725Z,100238.59
2022-10-06T19:07:22.531Z,100235.06
2022-10-06T19:10:10.221Z,100235.09
2022-10-06T19:12:59.931Z,100217.78
2022-10-06T19:15:50.547Z,100228.31
2022-10-06T19:18:38.803Z,100217.84
2022-10-06T19:21:28.679Z,100215.25
2022-10-06T19:24:17.819Z,100219.03
2022-10-06T19:27:12.054Z,100232.25
2022-10-06T19:29:58.894Z,100240.06
2022-10-06T19:32:45.722Z,100234.81
2022-10-06T19:35:32.722Z,100217.44
2022-10-06T19:38:20.484Z,100193.19
2022-10-06T19:41:26.022Z,100189.19
2022-10-06T19:44:15.408Z,100204.84
2022-10-06T19:47:02.232Z,100212.75
2022-10-06T19:49:51.695Z,100217.22
2022-10-06T19:52:38.505Z,100211.09
2022-10-06T19:55:25.567Z,100219.66
2022-10-06T19:58:12.359Z,100219.94
2022-10-06T20:00:59.748Z,100213.75
2022-10-06T20:03:46.808Z,100220.63
2022-10-06T20:06:39.749Z,100230.09
2022-10-06T20:09:26.511Z,100225.13
2022-10-06T20:12:14.061Z,100229.34
2022-10-06T20:15:01.022Z,100223.00
2022-10-06T20:17:47.996Z,100237.00
2022-10-06T20:20:36.010Z,100238.56
2022-10-06T20:23:22.871Z,100235.91
2022-10-06T20:26:12.518Z,100239.72
2022-10-06T20:29:05.266Z,100230.94
2022-10-06T20:31:54.036Z,100222.59
2022-10-06T20:34:40.813Z,100205.53
2022-10-06T20:37:27.570Z,100182.16
2022-10-06T20:40:32.898Z,100168.75
2022-10-06T20:43:21.188Z,100185.09
2022-10-06T20:46:08.013Z,100205.00
2022-10-06T20:48:54.796Z,100199.66
2022-10-06T20:51:47.070Z,100183.06
2022-10-06T20:54:37.377Z,100166.59
2022-10-06T20:57:24.307Z,100173.06
2022-10-06T21:00:11.555Z,100184.38
2022-10-06T21:03:01.355Z,100181.16
2022-10-06T21:05:52.513Z,100181.63
2022-10-06T21:08:43.870Z,100186.84
2022-10-06T21:11:33.611Z,100183.72
2022-10-06T21:14:20.423Z,100176.00
2022-10-06T21:17:07.205Z,100186.47
2022-10-06T21:19:54.026Z,100181.63
2022-10-06T21:22:40.806Z,100182.59
2022-10-06T21:25:27.545Z,100182.78
2022-10-06T21:28:18.387Z,100183.72
2022-10-06T21:31:09.649Z,100176.28
2022-10-06T21:33:56.737Z,100171.91
2022-10-06T21:36:44.079Z,100161.34
2022-10-06T21:39:30.870Z,100163.66
2022-10-06T21:42:17.645Z,100171.16
2022-10-06T21:45:05.005Z,100173.53
2022-10-06T21:47:51.777Z,100177.91
2022-10-06T21:50:38.538Z,100182.28
2022-10-06T21:53:25.298Z,100169.22
2022-10-06T21:56:14.344Z,100150.69
2022-10-06T21:59:01.333Z,100150.59
2022-10-06T22:01:51.091Z,100135.97
2022-10-06T22:04:38.527Z,100137.78
2022-10-06T22:07:25.290Z,100122.16
2022-10-06T22:10:12.085Z,100125.97
2022-10-06T22:12:58.830Z,100112.81
2022-10-06T22:15:45.668Z,100059.34
2022-10-06T22:18:32.840Z,100035.59
2022-10-06T22:21:22.578Z,100057.56
2022-10-06T22:24:12.923Z,100068.75
2022-10-06T22:26:59.742Z,100071.22
2022-10-06T22:29:46.491Z,100067.34
2022-10-06T22:32:33.263Z,100060.56
2022-10-06T22:35:20.085Z,100073.69
2022-10-06T22:38:06.875Z,100065.34
2022-10-06T22:40:58.290Z,100058.13
2022-10-06T22:43:47.567Z,100036.03
2022-10-06T22:46:35.861Z,100016.50
2022-10-06T22:49:22.788Z,100023.91
2022-10-06T22:52:09.556Z,100041.22
2022-10-06T22:54:56.332Z,100047.84
2022-10-06T22:57:45.995Z,100042.16
2022-10-06T23:00:35.489Z,100025.06
2022-10-06T23:03:25.165Z,100028.94
2022-10-06T23:06:14.120Z,100035.66
2022-10-06T23:09:03.077Z,100016.94
2022-10-06T23:11:52.187Z,100022.66
2022-10-06T23:14:41.454Z,100010.88
2022-10-06T23:17:28.204Z,100001.53
2022-10-06T23:20:17.803Z,99983.31
2022-10-06T23:23:05.039Z,99997.41
2022-10-06T23:25:51.804Z,100004.03
2022-10-06T23:28:39.020Z,100012.19
2022-10-06T23:31:27.283Z,100021.44
2022-10-06T23:34:14.086Z,100017.69
2022-10-06T23:37:00.914Z,100017.53
2022-10-06T23:39:47.711Z,100026.75
2022-10-06T23:42:34.546Z,100018.84
2022-10-06T23:45:21.332Z,100018.09
2022-10-06T23:48:08.167Z,99999.97
2022-10-06T23:51:04.394Z,100012.19
2022-10-06T23:53:51.180Z,100005.06
2022-10-06T23:56:38.195Z,100011.03
2022-10-06T23:59:26.107Z,100007.50
